Time;durP1;ratioP1;P1;durP2;ratioP2;P2;SDS_P1;SDS_P2;PMS_P1;PMS_P2;Temp;Humidity;BMP_temperature;BMP_pressure;BME280_temperature;BME280_humidity;BME280_pressure;Samples;Min_cycle;Max_cycle;Signal;HPM_P1;HPM_P2
2023/04/17 00:01:44;;;;;;;2.92;1.52;;;19.50;59.40;;;;;;5030699;28;20192;-49
2023/04/17 00:04:14;;;;;;;3.63;1.60;;;19.50;59.50;;;;;;5030915;28;20220;-47
2023/04/17 00:06:48;;;;;;;2.58;1.40;;;19.60;59.50;;;;;;5030700;28;20220;-46
2023/04/17 00:09:19;;;;;;;1.58;1.02;;;19.60;59.50;;;;;;5030095;28;20205;-47
2023/04/17 00:11:49;;;;;;;2.05;1.42;;;19.60;59.50;;;;;;5029743;28;20200;-47
2023/04/17 00:14:20;;;;;;;3.58;1.60;;;19.60;59.70;;;;;;5030428;28;20232;-49
2023/04/17 00:16:50;;;;;;;2.22;1.63;;;19.70;59.70;;;;;;5032029;28;20200;-48
2023/04/17 00:19:21;;;;;;;4.00;1.63;;;19.70;59.80;;;;;;5030679;28;20718;-48
2023/04/17 00:21:54;;;;;;;5.13;2.03;;;19.70;59.70;;;;;;5031034;28;20690;-47
2023/04/17 00:24:24;;;;;;;4.15;2.03;;;19.80;59.80;;;;;;5031245;28;20223;-51
2023/04/17 00:26:55;;;;;;;4.35;1.70;;;19.80;59.80;;;;;;5030654;28;20220;-49
2023/04/17 00:29:26;;;;;;;3.35;1.83;;;19.90;59.70;;;;;;5031202;28;20709;-49
2023/04/17 00:31:56;;;;;;;2.63;1.65;;;19.90;59.70;;;;;;5031499;28;20249;-46
2023/04/17 00:34:27;;;;;;;3.67;1.60;;;19.90;59.70;;;;;;5031025;28;20224;-46
2023/04/17 00:37:00;;;;;;;3.40;1.88;;;20.00;59.70;;;;;;5030500;28;20201;-48
2023/04/17 00:39:30;;;;;;;3.88;1.80;;;20.00;59.70;;;;;;5030372;28;20575;-51
2023/04/17 00:42:04;;;;;;;2.08;1.35;;;20.00;59.70;;;;;;5030056;28;20226;-45
2023/04/17 00:44:34;;;;;;;5.05;1.73;;;20.10;59.70;;;;;;5030129;28;20220;-45
2023/04/17 00:47:05;;;;;;;4.57;1.70;;;20.10;59.70;;;;;;5030188;28;20231;-45
2023/04/17 00:49:36;;;;;;;2.90;1.52;;;20.10;59.70;;;;;;5030617;28;20200;-45
2023/04/17 00:52:09;;;;;;;2.47;1.40;;;20.10;59.70;;;;;;5030338;28;20200;-46
2023/04/17 00:54:40;;;;;;;6.38;1.77;;;20.20;59.80;;;;;;5030588;28;20216;-47
2023/04/17 00:57:10;;;;;;;2.78;1.33;;;20.20;59.90;;;;;;5029735;28;20279;-47
2023/04/17 00:59:42;;;;;;;2.90;1.55;;;20.20;60.00;;;;;;5029706;28;20206;-47
2023/04/17 01:02:13;;;;;;;4.75;1.70;;;20.30;60.40;;;;;;5027539;28;20188;-45
2023/04/17 01:04:44;;;;;;;4.65;1.60;;;20.30;60.40;;;;;;5030201;28;20774;-48
2023/04/17 01:07:16;;;;;;;3.50;1.60;;;20.40;60.30;;;;;;5029740;28;20608;-47
2023/04/17 01:09:47;;;;;;;3.40;1.80;;;20.40;60.20;;;;;;5032443;28;20196;-48
2023/04/17 01:12:23;;;;;;;3.05;1.95;;;20.50;60.20;;;;;;5039171;28;20195;-49
2023/04/17 01:14:53;;;;;;;4.70;1.83;;;20.50;60.10;;;;;;5050584;28;20210;-46
2023/04/17 01:17:25;;;;;;;5.32;1.67;;;20.60;60.00;;;;;;5022439;28;20195;-46
2023/04/17 01:19:56;;;;;;;3.65;1.27;;;20.60;60.00;;;;;;5030286;28;20199;-46
2023/04/17 01:22:28;;;;;;;2.63;1.65;;;20.60;60.00;;;;;;5029743;28;20255;-45
2023/04/17 01:25:01;;;;;;;3.90;1.65;;;20.60;59.90;;;;;;5030164;28;20204;-47
2023/04/17 01:27:32;;;;;;;3.70;1.38;;;20.70;59.90;;;;;;5034900;28;20253;-45
2023/04/17 01:30:02;;;;;;;4.68;1.80;;;20.70;59.90;;;;;;5046641;28;20208;-47
2023/04/17 01:32:33;;;;;;;3.97;2.00;;;20.70;59.90;;;;;;5038298;28;20199;-47
2023/04/17 01:35:04;;;;;;;4.25;1.75;;;20.70;60.60;;;;;;5029450;28;20244;-46
2023/04/17 01:37:35;;;;;;;3.40;1.40;;;20.70;59.90;;;;;;5030377;28;20200;-47
2023/04/17 01:40:08;;;;;;;4.97;1.70;;;20.80;59.80;;;;;;5030028;28;20196;-46
2023/04/17 01:42:39;;;;;;;4.63;1.80;;;20.80;59.80;;;;;;5030442;28;20231;-49
2023/04/17 01:45:10;;;;;;;2.25;1.77;;;20.90;59.80;;;;;;5029887;28;20200;-45
2023/04/17 01:47:41;;;;;;;4.30;2.00;;;20.90;59.80;;;;;;5030000;28;20250;-47
2023/04/17 01:50:12;;;;;;;3.85;1.65;;;20.90;59.70;;;;;;5029712;28;20200;-47
2023/04/17 01:52:43;;;;;;;3.40;1.55;;;20.90;59.80;;;;;;5041685;22;20239;-51
2023/04/17 01:55:15;;;;;;;5.75;1.98;;;20.90;59.80;;;;;;5030749;28;20196;-51
2023/04/17 01:57:46;;;;;;;5.70;1.70;;;21.00;59.80;;;;;;5030167;28;20196;-51
2023/04/17 02:00:17;;;;;;;3.67;2.03;;;21.00;59.80;;;;;;5029608;28;20196;-51
2023/04/17 02:02:48;;;;;;;4.25;2.05;;;21.00;59.80;;;;;;5029522;28;20223;-51
2023/04/17 02:05:19;;;;;;;2.50;1.58;;;21.10;59.70;;;;;;5029911;28;20700;-53
2023/04/17 02:07:51;;;;;;;5.00;2.08;;;21.10;59.80;;;;;;5029628;28;20231;-54
2023/04/17 02:10:24;;;;;;;4.82;1.80;;;21.10;59.70;;;;;;5029817;28;20254;-51
2023/04/17 02:12:55;;;;;;;3.47;1.70;;;21.10;59.70;;;;;;5032286;28;20220;-52
2023/04/17 02:15:25;;;;;;;5.00;1.73;;;21.20;59.50;;;;;;5033571;28;20226;-53
2023/04/17 02:17:56;;;;;;;4.38;1.63;;;21.20;59.70;;;;;;5032502;28;20211;-51
2023/04/17 02:20:27;;;;;;;4.43;2.05;;;21.20;59.70;;;;;;5033114;28;20207;-54
2023/04/17 02:22:57;;;;;;;4.40;1.73;;;21.30;59.60;;;;;;5033418;28;20679;-53
2023/04/17 02:25:30;;;;;;;3.92;1.65;;;21.30;59.50;;;;;;5033211;28;20204;-52
2023/04/17 02:28:01;;;;;;;3.33;1.65;;;21.30;59.50;;;;;;5033761;28;20220;-54
2023/04/17 02:30:31;;;;;;;4.32;1.70;;;21.40;59.60;;;;;;5013270;28;20733;-54
2023/04/17 02:33:02;;;;;;;4.45;1.70;;;21.40;59.60;;;;;;5025871;28;20208;-53
2023/04/17 02:35:34;;;;;;;4.57;2.20;;;21.40;59.60;;;;;;5033252;28;20279;-50
2023/04/17 02:38:05;;;;;;;3.60;1.90;;;21.50;59.60;;;;;;5033643;28;20196;-53
2023/04/17 02:40:37;;;;;;;7.03;1.98;;;21.50;59.60;;;;;;5034148;28;20196;-53
2023/04/17 02:43:08;;;;;;;4.95;1.75;;;21.60;59.60;;;;;;5033896;28;20224;-52
2023/04/17 02:45:39;;;;;;;3.38;1.65;;;21.60;59.60;;;;;;5033768;28;20204;-51
2023/04/17 02:48:09;;;;;;;3.33;1.67;;;21.60;59.50;;;;;;5033379;28;20228;-53
2023/04/17 02:53:28;;;;;;;3.90;1.77;;;21.70;59.50;;;;;;5874160;22;20689;-56
2023/04/17 02:56:13;;;;;;;6.25;1.95;;;21.70;59.50;;;;;;5010436;28;20587;-56
2023/04/17 02:58:47;;;;;;;5.53;1.88;;;21.80;59.50;;;;;;5011021;28;20542;-58
2023/04/17 03:01:22;;;;;;;3.53;1.80;;;21.80;59.50;;;;;;5011658;28;20574;-55
2023/04/17 03:03:57;;;;;;;4.07;1.83;;;21.80;60.00;;;;;;5011852;28;20223;-59
2023/04/17 03:06:31;;;;;;;4.95;1.90;;;21.80;59.40;;;;;;5018378;28;20570;-54
2023/04/17 03:09:03;;;;;;;3.85;1.52;;;21.80;59.40;;;;;;5016081;28;20268;-52
2023/04/17 03:11:40;;;;;;;4.60;1.63;;;21.90;59.40;;;;;;5008027;28;20649;-55
2023/04/17 03:14:10;;;;;;;5.00;1.75;;;21.90;59.40;;;;;;5010693;28;20215;-55
2023/04/17 03:16:41;;;;;;;5.03;1.90;;;21.90;59.40;;;;;;5019413;28;20248;-56
2023/04/17 03:19:12;;;;;;;4.72;2.08;;;21.90;59.30;;;;;;5013084;28;20201;-55
2023/04/17 03:21:42;;;;;;;6.30;1.67;;;22.00;59.40;;;;;;5012307;28;20829;-56
2023/04/17 03:24:13;;;;;;;3.05;1.70;;;22.00;59.50;;;;;;5011265;28;20220;-56
2023/04/17 03:26:46;;;;;;;3.58;1.70;;;22.00;59.50;;;;;;5011863;28;20216;-54
2023/04/17 03:29:16;;;;;;;4.43;1.70;;;22.00;59.40;;;;;;5020026;28;20204;-54
2023/04/17 03:31:47;;;;;;;4.60;1.77;;;22.10;59.40;;;;;;5024714;28;20196;-56
2023/04/17 03:34:18;;;;;;;6.93;1.85;;;22.10;59.30;;;;;;5031906;28;20586;-55
2023/04/17 03:36:48;;;;;;;3.75;1.95;;;22.10;59.30;;;;;;5015562;28;20657;-55
2023/04/17 03:39:19;;;;;;;4.00;1.98;;;22.20;59.40;;;;;;5021669;28;20200;-56
2023/04/17 03:41:52;;;;;;;4.32;1.75;;;22.20;59.30;;;;;;5014870;28;20657;-57
2023/04/17 03:44:22;;;;;;;3.85;1.92;;;22.20;59.30;;;;;;5012245;28;20228;-56
2023/04/17 03:46:53;;;;;;;3.78;1.77;;;22.20;59.30;;;;;;5027465;28;20246;-58
2023/04/17 03:49:24;;;;;;;4.50;1.80;;;22.30;59.30;;;;;;5031075;28;20250;-56
2023/04/17 03:51:54;;;;;;;2.22;1.45;;;22.30;59.30;;;;;;5025925;22;20232;-45
2023/04/17 03:54:25;;;;;;;5.55;2.00;;;22.30;59.20;;;;;;5005986;28;20234;-44
2023/04/17 03:56:57;;;;;;;4.65;1.75;;;22.40;59.20;;;;;;5006229;28;20217;-45
2023/04/17 03:59:28;;;;;;;6.88;2.10;;;22.40;59.20;;;;;;5001999;28;20221;-46
2023/04/17 04:01:59;;;;;;;4.30;1.65;;;22.40;59.20;;;;;;5011464;28;20200;-45
2023/04/17 04:04:29;;;;;;;3.60;1.85;;;22.40;59.10;;;;;;5011827;28;20232;-46
2023/04/17 04:07:00;;;;;;;4.03;1.55;;;22.50;59.10;;;;;;5008991;28;20221;-45
2023/04/17 04:09:30;;;;;;;3.05;1.58;;;22.50;59.10;;;;;;5002324;28;20658;-46
2023/04/17 04:12:03;;;;;;;3.28;1.65;;;22.50;59.00;;;;;;5007344;28;20197;-46
2023/04/17 04:14:34;;;;;;;4.25;2.08;;;22.50;59.00;;;;;;5011194;28;20221;-44
2023/04/17 04:17:04;;;;;;;2.90;1.60;;;22.60;59.00;;;;;;5012045;28;20200;-49
2023/04/17 04:19:35;;;;;;;3.97;1.63;;;22.60;59.00;;;;;;4999571;28;20206;-45
2023/04/17 04:22:06;;;;;;;4.80;1.60;;;22.60;58.90;;;;;;5007559;28;20626;-48
2023/04/17 04:24:37;;;;;;;3.45;1.50;;;22.60;58.80;;;;;;4996814;28;20315;-49
2023/04/17 04:27:11;;;;;;;4.45;1.80;;;22.70;58.80;;;;;;5007827;28;20224;-46
2023/04/17 04:29:44;;;;;;;2.95;1.70;;;22.70;58.80;;;;;;5010394;28;20200;-49
2023/04/17 04:32:15;;;;;;;3.28;1.50;;;22.70;58.80;;;;;;5027070;28;20265;-47
2023/04/17 04:34:45;;;;;;;4.10;1.92;;;22.70;58.70;;;;;;5030333;28;20220;-47
2023/04/17 04:37:16;;;;;;;4.43;1.63;;;22.70;58.70;;;;;;5030777;28;20203;-46
2023/04/17 04:39:52;;;;;;;4.15;1.70;;;22.70;58.70;;;;;;5016934;28;20685;-46
2023/04/17 04:42:25;;;;;;;5.43;1.85;;;22.70;58.70;;;;;;5005598;28;20232;-48
2023/04/17 04:44:56;;;;;;;3.92;1.70;;;22.80;58.70;;;;;;4991338;28;20224;-49
2023/04/17 04:47:26;;;;;;;7.78;2.17;;;22.80;58.60;;;;;;4992623;28;20621;-48
2023/04/17 04:49:57;;;;;;;9.02;3.42;;;22.80;58.60;;;;;;5005640;28;20205;-49
2023/04/17 04:52:27;;;;;;;7.38;3.00;;;22.80;58.70;;;;;;5011394;28;20196;-47
2023/04/17 04:54:58;;;;;;;10.38;3.08;;;22.80;58.60;;;;;;5011397;28;20668;-47
2023/04/17 04:57:31;;;;;;;8.23;3.13;;;22.80;58.60;;;;;;5010659;28;20197;-47
2023/04/17 05:00:03;;;;;;;8.23;2.85;;;22.90;58.60;;;;;;5011708;28;20205;-50
2023/04/17 05:02:35;;;;;;;8.93;2.58;;;22.90;58.60;;;;;;4996380;28;20202;-48
2023/04/17 05:05:08;;;;;;;9.18;3.10;;;22.90;58.60;;;;;;4996521;28;20193;-47
2023/04/17 05:07:38;;;;;;;10.32;2.95;;;22.90;58.50;;;;;;5011285;28;20216;-49
2023/04/17 05:10:10;;;;;;;13.25;3.42;;;23.00;58.50;;;;;;4993866;28;20221;-47
2023/04/17 05:12:43;;;;;;;8.57;3.08;;;23.00;58.50;;;;;;5009118;28;20204;-47
2023/04/17 05:15:14;;;;;;;9.27;2.85;;;23.00;58.50;;;;;;4995845;28;20221;-51
2023/04/17 05:17:44;;;;;;;8.10;2.70;;;23.00;58.50;;;;;;5010816;28;20201;-47
2023/04/17 05:20:15;;;;;;;9.93;2.88;;;23.00;58.50;;;;;;4993793;28;20212;-48
2023/04/17 05:22:46;;;;;;;10.73;3.05;;;23.00;58.50;;;;;;5009511;28;20282;-47
2023/04/17 05:25:18;;;;;;;10.82;4.65;;;23.00;58.40;;;;;;5010616;28;20192;-48
2023/04/17 05:27:51;;;;;;;11.52;4.50;;;23.00;58.20;;;;;;5018238;28;20247;-47
2023/04/17 05:30:21;;;;;;;11.38;4.45;;;23.00;58.10;;;;;;5010428;28;20200;-51
2023/04/17 05:32:53;;;;;;;15.25;5.25;;;23.00;57.90;;;;;;5029936;28;20212;-46
2023/04/17 05:35:23;;;;;;;12.70;4.63;;;23.00;57.90;;;;;;5011125;28;20284;-47
2023/04/17 05:37:54;;;;;;;13.57;4.60;;;23.00;57.80;;;;;;5010805;28;20228;-49
2023/04/17 05:40:25;;;;;;;15.18;5.32;;;23.00;57.80;;;;;;5012188;28;21980;-50
2023/04/17 05:42:58;;;;;;;12.25;5.40;;;23.00;57.80;;;;;;5007104;28;20236;-49
2023/04/17 05:45:28;;;;;;;15.77;5.55;;;23.10;57.80;;;;;;4996531;28;20205;-50
2023/04/17 05:47:59;;;;;;;17.85;5.43;;;23.10;58.40;;;;;;5014094;28;20232;-50
2023/04/17 05:50:30;;;;;;;13.48;4.82;;;23.10;57.70;;;;;;5015294;28;20208;-50
2023/04/17 05:53:01;;;;;;;12.27;5.20;;;23.10;57.70;;;;;;5010474;22;20266;-57
2023/04/17 05:55:31;;;;;;;14.70;5.63;;;23.10;57.60;;;;;;4982539;28;20206;-59
2023/04/17 05:58:04;;;;;;;15.25;5.35;;;23.10;57.60;;;;;;4994397;28;20201;-58
2023/04/17 06:00:34;;;;;;;15.32;5.47;;;23.10;57.70;;;;;;4994399;28;20190;-58
2023/04/17 06:03:05;;;;;;;53.47;31.10;;;23.10;57.70;;;;;;4994325;28;20267;-59
2023/04/17 06:05:36;;;;;;;60.15;31.27;;;23.10;57.80;;;;;;4993756;28;20198;-60
2023/04/17 06:08:07;;;;;;;85.88;39.58;;;23.10;58.00;;;;;;4994714;28;20247;-59
2023/04/17 06:10:39;;;;;;;94.28;42.50;;;23.10;58.20;;;;;;4994336;28;20681;-59
2023/04/17 06:13:11;;;;;;;100.45;47.45;;;23.10;58.60;;;;;;4994525;28;20221;-58
2023/04/17 06:15:42;;;;;;;78.53;38.38;;;23.10;59.20;;;;;;4999988;28;20270;-58
2023/04/17 06:18:14;;;;;;;70.65;35.20;;;23.10;59.60;;;;;;5013849;28;20208;-58
2023/04/17 06:20:45;;;;;;;65.30;32.97;;;23.20;59.50;;;;;;4995473;28;20577;-59
2023/04/17 06:23:16;;;;;;;69.70;31.67;;;23.20;59.50;;;;;;4993675;28;20221;-55
2023/04/17 06:25:46;;;;;;;62.25;31.60;;;23.20;59.40;;;;;;4993413;28;20189;-53
2023/04/17 06:28:19;;;;;;;68.65;32.85;;;23.20;59.40;;;;;;4993292;28;20221;-54
2023/04/17 06:30:50;;;;;;;70.38;32.15;;;23.20;59.40;;;;;;4991414;28;20193;-53
2023/04/17 06:33:20;;;;;;;69.05;30.92;;;23.20;59.30;;;;;;4994310;28;20271;-55
2023/04/17 06:35:51;;;;;;;59.97;29.17;;;23.10;59.20;;;;;;4993755;28;20193;-55
2023/04/17 06:38:21;;;;;;;68.88;29.58;;;23.10;59.10;;;;;;4993789;28;20212;-52
2023/04/17 06:40:52;;;;;;;62.13;28.38;;;23.10;59.00;;;;;;4992238;28;20684;-54
2023/04/17 06:43:25;;;;;;;56.58;28.40;;;23.10;59.00;;;;;;4992997;28;20221;-54
2023/04/17 06:45:55;;;;;;;57.05;27.42;;;23.00;58.90;;;;;;5001536;28;20219;-52
2023/04/17 06:48:26;;;;;;;56.75;26.88;;;23.00;58.80;;;;;;5012465;28;20282;-53
2023/04/17 06:50:57;;;;;;;53.85;25.73;;;23.00;58.70;;;;;;4993448;28;20198;-54
2023/04/17 06:53:28;;;;;;;52.72;25.85;;;22.90;58.70;;;;;;4993030;28;20657;-53
2023/04/17 06:55:58;;;;;;;51.75;23.98;;;22.90;58.70;;;;;;4993376;28;20236;-53
2023/04/17 06:58:31;;;;;;;49.63;24.02;;;22.90;58.70;;;;;;4992431;28;20198;-54
2023/04/17 07:01:01;;;;;;;51.00;24.45;;;22.80;58.60;;;;;;4993057;28;20594;-51
2023/04/17 07:03:32;;;;;;;46.55;23.17;;;22.80;58.60;;;;;;4993651;28;20222;-50
2023/04/17 07:06:03;;;;;;;45.38;22.67;;;22.80;58.60;;;;;;4992525;28;20220;-54
2023/04/17 07:08:33;;;;;;;44.53;23.10;;;22.70;58.50;;;;;;4993729;28;20229;-53
2023/04/17 07:11:04;;;;;;;39.80;21.50;;;22.70;58.50;;;;;;4993238;28;20189;-53
2023/04/17 07:13:37;;;;;;;42.33;21.80;;;22.70;58.50;;;;;;4991097;28;20213;-54
2023/04/17 07:16:08;;;;;;;42.08;20.05;;;22.70;58.50;;;;;;5002871;28;20197;-53
2023/04/17 07:18:39;;;;;;;42.92;21.48;;;22.60;58.40;;;;;;5012544;28;20657;-50
2023/04/17 07:21:09;;;;;;;45.10;20.05;;;22.60;58.40;;;;;;4994786;28;20553;-52
2023/04/17 07:23:40;;;;;;;45.03;20.92;;;22.50;58.30;;;;;;4993773;28;20217;-50
2023/04/17 07:26:11;;;;;;;42.33;21.30;;;22.50;58.30;;;;;;4993813;28;20224;-52
2023/04/17 07:28:44;;;;;;;44.30;20.17;;;22.50;58.30;;;;;;4993356;28;20229;-55
2023/04/17 07:31:15;;;;;;;33.25;18.70;;;22.50;58.30;;;;;;4993218;28;20197;-53
2023/04/17 07:33:45;;;;;;;37.72;19.20;;;22.40;58.20;;;;;;4992257;28;20224;-56
2023/04/17 07:36:16;;;;;;;33.60;18.67;;;22.40;58.20;;;;;;4992836;28;20193;-55
2023/04/17 07:38:46;;;;;;;35.28;18.65;;;22.40;58.20;;;;;;4974482;28;20206;-52
2023/04/17 07:41:17;;;;;;;32.65;17.83;;;22.40;58.20;;;;;;4973770;28;20210;-54
2023/04/17 07:43:50;;;;;;;35.95;17.63;;;22.30;58.20;;;;;;4973491;28;20226;-55
2023/04/17 07:46:20;;;;;;;30.45;18.15;;;22.30;58.20;;;;;;4995686;28;20308;-52
2023/04/17 07:48:51;;;;;;;34.72;17.88;;;22.30;58.10;;;;;;5012037;28;20631;-56
2023/04/17 07:51:21;;;;;;;31.80;16.35;;;22.30;58.10;;;;;;5024749;22;20197;-48
2023/04/17 07:53:52;;;;;;;31.63;16.52;;;22.30;58.20;;;;;;5012646;28;20229;-48
2023/04/17 07:56:23;;;;;;;27.80;16.25;;;22.20;58.10;;;;;;5012952;28;20288;-47
2023/04/17 07:58:57;;;;;;;29.52;16.65;;;22.20;58.10;;;;;;5012455;28;20208;-49
2023/04/17 08:01:27;;;;;;;27.75;15.90;;;22.20;58.10;;;;;;5012487;28;20263;-47
2023/04/17 08:03:58;;;;;;;29.67;15.57;;;22.10;58.10;;;;;;5011838;28;20223;-48
2023/04/17 08:06:29;;;;;;;31.02;14.68;;;22.10;58.00;;;;;;5012060;28;20775;-49
2023/04/17 08:09:00;;;;;;;29.35;16.42;;;22.10;58.00;;;;;;5012066;28;20236;-48
2023/04/17 08:11:31;;;;;;;26.75;14.82;;;22.10;58.00;;;;;;5012305;28;20274;-49
2023/04/17 08:14:04;;;;;;;26.38;14.77;;;22.00;58.00;;;;;;5012290;28;20229;-49
2023/04/17 08:16:35;;;;;;;30.85;15.57;;;22.00;58.00;;;;;;5025301;28;20203;-47
2023/04/17 08:19:05;;;;;;;26.00;14.60;;;22.00;58.00;;;;;;5030780;28;20258;-46
2023/04/17 08:21:36;;;;;;;23.02;13.18;;;22.00;58.00;;;;;;5031485;28;20560;-49
2023/04/17 08:24:07;;;;;;;26.90;13.75;;;22.00;58.00;;;;;;5031242;28;20224;-48
2023/04/17 08:26:38;;;;;;;26.38;14.50;;;21.90;57.90;;;;;;5031635;28;20576;-47
2023/04/17 08:29:10;;;;;;;27.15;14.50;;;21.90;58.50;;;;;;5015807;28;20661;-48
2023/04/17 08:31:41;;;;;;;25.38;13.50;;;21.90;57.90;;;;;;4992137;28;20208;-48
2023/04/17 08:34:12;;;;;;;28.80;14.88;;;21.90;57.90;;;;;;4991398;28;20308;-47
2023/04/17 08:36:42;;;;;;;24.20;13.57;;;21.90;57.90;;;;;;4992039;28;20197;-47
2023/04/17 08:39:15;;;;;;;27.40;13.60;;;21.80;57.90;;;;;;4992309;28;20209;-46
2023/04/17 08:41:50;;;;;;;22.70;13.48;;;21.80;57.90;;;;;;4991822;28;20202;-48
2023/04/17 08:44:23;;;;;;;22.33;12.82;;;21.80;57.90;;;;;;4991696;28;20308;-47
2023/04/17 08:46:57;;;;;;;24.88;13.68;;;21.80;57.90;;;;;;5023193;28;20203;-48
2023/04/17 08:49:29;;;;;;;21.40;12.80;;;21.70;57.90;;;;;;5030640;28;20227;-49
2023/04/17 08:52:03;;;;;;;23.25;12.50;;;21.70;57.90;;;;;;5030586;22;20733;-52
2023/04/17 08:54:34;;;;;;;23.33;12.93;;;21.70;57.90;;;;;;4992006;28;20218;-53
2023/04/17 08:57:05;;;;;;;21.85;12.25;;;21.70;57.90;;;;;;4992016;28;20654;-55
2023/04/17 08:59:38;;;;;;;20.88;12.25;;;21.60;57.90;;;;;;4991858;28;20205;-55
2023/04/17 09:02:09;;;;;;;22.88;12.23;;;21.60;57.90;;;;;;4992182;28;20204;-54
2023/04/17 09:04:41;;;;;;;18.02;11.70;;;21.60;57.80;;;;;;4991687;28;20222;-55
2023/04/17 09:07:13;;;;;;;22.15;11.85;;;21.60;57.90;;;;;;4992190;28;20201;-54
2023/04/17 09:09:54;;;;;;;20.55;11.27;;;21.50;57.80;;;;;;4991880;28;20299;-54
2023/04/17 09:12:25;;;;;;;18.75;10.65;;;21.50;57.80;;;;;;4988424;28;20650;-57
2023/04/17 09:14:58;;;;;;;23.23;11.73;;;21.50;57.70;;;;;;4972489;28;20590;-56
2023/04/17 09:17:36;;;;;;;20.52;11.10;;;21.50;57.80;;;;;;4974291;28;20201;-51
2023/04/17 09:20:08;;;;;;;17.58;10.77;;;21.50;57.80;;;;;;4971264;28;20277;-52
2023/04/17 09:22:40;;;;;;;19.77;10.70;;;21.50;57.80;;;;;;4954601;28;20651;-55
2023/04/17 09:25:19;;;;;;;19.60;10.32;;;21.40;57.80;;;;;;4956519;28;20234;-54
2023/04/17 09:27:49;;;;;;;17.95;10.70;;;21.40;57.80;;;;;;4956503;28;20659;-55
2023/04/17 09:30:22;;;;;;;15.88;10.38;;;21.40;57.80;;;;;;4956080;28;20237;-52
2023/04/17 09:33:06;;;;;;;18.10;10.25;;;21.40;57.80;;;;;;4955060;28;20219;-53
2023/04/17 09:35:38;;;;;;;16.05;10.35;;;21.30;57.80;;;;;;4973910;28;20654;-53
2023/04/17 09:38:09;;;;;;;16.05;10.50;;;21.30;57.80;;;;;;4975549;28;20612;-55
2023/04/17 09:40:41;;;;;;;16.33;9.40;;;21.30;57.80;;;;;;4981978;28;20216;-58
2023/04/17 09:43:12;;;;;;;15.30;10.07;;;21.30;57.80;;;;;;4995501;28;20704;-54
2023/04/17 09:45:45;;;;;;;14.98;9.38;;;21.30;57.80;;;;;;4995427;28;20205;-52
2023/04/17 09:48:16;;;;;;;14.07;9.52;;;21.30;57.80;;;;;;4993844;28;20626;-58
2023/04/17 09:50:49;;;;;;;15.27;9.88;;;21.30;57.80;;;;;;4995080;28;20601;-54
2023/04/17 09:53:21;;;;;;;15.00;9.60;;;21.20;57.80;;;;;;5022776;22;20220;-47
2023/04/17 09:55:52;;;;;;;15.27;8.65;;;21.20;57.50;;;;;;5014365;28;20208;-48
2023/04/17 09:58:23;;;;;;;13.80;8.63;;;21.20;57.20;;;;;;5014454;28;20675;-47
2023/04/17 10:00:56;;;;;;;14.68;8.60;;;21.20;57.10;;;;;;5014328;28;20204;-46
2023/04/17 10:03:26;;;;;;;12.98;8.32;;;21.20;57.10;;;;;;5013878;28;20610;-46
2023/04/17 10:05:57;;;;;;;11.85;7.60;;;21.20;57.30;;;;;;5014160;28;20229;-50
2023/04/17 10:08:29;;;;;;;13.10;7.70;;;21.20;57.40;;;;;;5014862;28;20615;-48
2023/04/17 10:11:07;;;;;;;14.45;8.65;;;21.20;57.40;;;;;;5003137;28;20200;-46
2023/04/17 10:13:39;;;;;;;13.23;8.07;;;21.10;57.40;;;;;;5012793;28;20227;-46
2023/04/17 10:16:12;;;;;;;11.90;7.47;;;21.10;57.30;;;;;;5018102;28;20228;-46
2023/04/17 10:18:42;;;;;;;12.45;7.22;;;21.10;57.30;;;;;;5013115;28;20203;-48
2023/04/17 10:21:24;;;;;;;14.30;8.02;;;21.10;57.30;;;;;;5010248;28;20615;-46
2023/04/17 10:23:55;;;;;;;12.25;7.68;;;21.10;57.30;;;;;;5013881;28;20255;-49
2023/04/17 10:26:40;;;;;;;10.45;6.97;;;21.10;57.40;;;;;;5013325;28;20193;-49
2023/04/17 10:29:11;;;;;;;12.35;7.80;;;21.10;57.40;;;;;;5000647;28;20587;-51
2023/04/17 10:32:24;;;;;;;11.88;7.13;;;21.10;57.40;;;;;;5019798;28;20562;-46
2023/04/17 10:34:58;;;;;;;12.70;7.35;;;21.10;57.40;;;;;;5027759;28;20557;-50
2023/04/17 10:38:10;;;;;;;10.70;7.28;;;21.10;57.40;;;;;;5013077;28;20229;-52
2023/04/17 10:40:41;;;;;;;10.02;6.97;;;21.00;57.30;;;;;;4968424;28;20567;-46
2023/04/17 10:43:16;;;;;;;10.32;7.03;;;21.00;57.30;;;;;;5013597;28;20294;-50
2023/04/17 10:46:02;;;;;;;11.10;6.80;;;21.00;57.30;;;;;;5019035;28;20208;-50
2023/04/17 10:48:34;;;;;;;10.73;6.85;;;21.00;57.40;;;;;;5032288;28;20283;-52
2023/04/17 10:53:50;;;;;;;13.23;6.97;;;20.90;57.40;;;;;;5019237;28;20239;-51
2023/04/17 10:56:26;;;;;;;10.27;6.72;;;20.90;57.40;;;;;;5013547;28;20251;-54
2023/04/17 10:59:00;;;;;;;12.48;7.35;;;20.90;57.40;;;;;;5013010;28;20262;-53
2023/04/17 11:01:32;;;;;;;10.45;6.80;;;20.90;57.40;;;;;;5012430;28;20204;-61
2023/04/17 11:04:03;;;;;;;12.80;7.13;;;20.90;57.40;;;;;;5012721;28;20216;-54
2023/04/17 11:06:35;;;;;;;12.15;6.57;;;20.90;57.50;;;;;;5013198;28;20672;-54
2023/04/17 11:09:11;;;;;;;11.13;6.85;;;20.90;57.40;;;;;;5012264;28;20590;-53
2023/04/17 11:11:42;;;;;;;9.82;6.57;;;20.90;57.40;;;;;;5013254;28;20220;-54
2023/04/17 11:14:15;;;;;;;10.05;6.45;;;20.90;57.40;;;;;;5006400;28;20720;-53
2023/04/17 11:16:47;;;;;;;11.45;7.43;;;20.90;57.40;;;;;;5012268;28;20197;-56
2023/04/17 11:19:22;;;;;;;12.13;6.93;;;20.90;57.40;;;;;;5013277;28;20208;-51
2023/04/17 11:21:53;;;;;;;11.48;6.72;;;20.90;57.40;;;;;;5012774;28;20224;-55
2023/04/17 11:24:29;;;;;;;10.25;6.75;;;20.90;57.40;;;;;;5013072;28;20216;-53
2023/04/17 11:27:02;;;;;;;11.35;6.88;;;20.90;57.40;;;;;;5012242;28;20189;-50
2023/04/17 11:29:35;;;;;;;14.10;7.07;;;20.80;57.30;;;;;;5012444;28;20228;-52
2023/04/17 11:32:06;;;;;;;10.98;6.30;;;20.80;57.30;;;;;;5012102;28;20196;-51
2023/04/17 11:34:38;;;;;;;12.48;7.07;;;20.80;57.30;;;;;;5012680;28;20219;-54
2023/04/17 11:37:08;;;;;;;11.95;7.20;;;20.80;57.40;;;;;;5011392;28;20197;-54
2023/04/17 11:39:44;;;;;;;8.82;6.05;;;20.70;57.40;;;;;;5012621;28;20687;-51
2023/04/17 11:42:15;;;;;;;10.23;6.75;;;20.80;57.40;;;;;;5011756;28;20197;-54
2023/04/17 11:44:46;;;;;;;9.75;6.50;;;20.80;57.50;;;;;;5010991;28;20263;-54
2023/04/17 11:47:17;;;;;;;10.27;6.90;;;20.80;57.40;;;;;;5011582;28;20653;-51
2023/04/17 11:49:49;;;;;;;12.20;6.82;;;20.80;57.40;;;;;;5012202;28;20594;-53
2023/04/17 11:55:19;;;;;;;12.57;6.88;;;20.80;57.40;;;;;;5608910;22;20699;-48
2023/04/17 11:58:02;;;;;;;10.10;6.88;;;20.80;57.40;;;;;;5029622;28;20287;-47
2023/04/17 12:00:36;;;;;;;10.85;6.82;;;20.70;57.30;;;;;;5025607;28;20586;-50
2023/04/17 12:03:34;;;;;;;14.07;6.80;;;20.70;57.30;;;;;;5020315;28;20741;-48
2023/04/17 12:06:06;;;;;;;12.57;7.07;;;20.70;57.30;;;;;;5015281;28;20212;-48
2023/04/17 12:08:45;;;;;;;14.00;7.32;;;20.70;57.30;;;;;;5012739;28;20197;-49
2023/04/17 12:11:26;;;;;;;12.35;6.55;;;20.70;57.30;;;;;;5011667;28;20231;-48
2023/04/17 12:13:57;;;;;;;10.00;6.40;;;20.70;57.30;;;;;;5009567;28;20220;-46
2023/04/17 12:16:29;;;;;;;12.55;6.63;;;20.70;57.30;;;;;;5011471;28;20196;-46
2023/04/17 12:18:59;;;;;;;12.60;7.28;;;20.70;57.30;;;;;;5011328;28;20226;-50
2023/04/17 12:21:30;;;;;;;14.23;7.45;;;20.70;57.40;;;;;;5019453;28;20535;-48
2023/04/17 12:24:01;;;;;;;13.70;6.68;;;20.70;57.40;;;;;;5031133;28;20234;-49
2023/04/17 12:26:36;;;;;;;10.88;6.53;;;20.70;57.40;;;;;;5031533;28;20241;-49
2023/04/17 12:29:06;;;;;;;11.70;6.43;;;20.70;57.40;;;;;;5031587;28;20618;-52
2023/04/17 12:31:37;;;;;;;13.73;7.15;;;20.70;57.40;;;;;;5031722;28;20223;-48
2023/04/17 12:34:08;;;;;;;12.55;7.13;;;20.70;57.40;;;;;;5031191;28;20215;-49
2023/04/17 12:36:38;;;;;;;12.10;7.22;;;20.70;57.40;;;;;;5031798;28;20206;-47
2023/04/17 12:39:09;;;;;;;11.32;6.22;;;20.70;57.40;;;;;;5031829;28;20196;-47
2023/04/17 12:41:42;;;;;;;11.55;7.03;;;20.60;57.40;;;;;;5031634;28;20200;-49
2023/04/17 12:44:12;;;;;;;13.02;6.72;;;20.70;57.40;;;;;;5031644;28;20219;-50
2023/04/17 12:46:43;;;;;;;10.07;5.78;;;20.70;57.40;;;;;;5016968;28;20664;-51
2023/04/17 12:49:14;;;;;;;11.15;6.05;;;20.70;57.40;;;;;;5010363;28;20199;-51
2023/04/17 12:51:45;;;;;;;11.55;6.72;;;20.60;57.40;;;;;;5022336;22;20213;-56
2023/04/17 12:54:15;;;;;;;9.50;6.10;;;20.60;57.30;;;;;;5015535;28;20227;-51
2023/04/17 12:56:48;;;;;;;12.50;6.35;;;20.60;57.30;;;;;;5009742;28;20196;-55
2023/04/17 12:59:19;;;;;;;11.98;5.97;;;20.60;57.30;;;;;;5010476;28;20558;-54
2023/04/17 13:01:49;;;;;;;12.52;6.90;;;20.60;57.30;;;;;;5010489;28;20196;-56
2023/04/17 13:04:20;;;;;;;12.77;6.65;;;20.60;57.30;;;;;;5010313;28;20216;-53
2023/04/17 13:06:50;;;;;;;9.10;5.53;;;20.60;57.30;;;;;;5009956;28;20874;-54
2023/04/17 13:09:21;;;;;;;10.70;6.00;;;20.60;57.20;;;;;;5006955;28;20193;-55
2023/04/17 13:11:54;;;;;;;9.93;5.45;;;20.60;57.30;;;;;;5010416;28;20208;-56